Time;durP1;ratioP1;P1;durP2;ratioP2;P2;SDS_P1;SDS_P2;PMS_P1;PMS_P2;Temp;Humidity;BMP_temperature;BMP_pressure;BME280_temperature;BME280_humidity;BME280_pressure;Samples;Min_cycle;Max_cycle;Signal;HPM_P1;HPM_P2
2022/12/06 00:01:05;;;;;;;14.27;6.97;;;;;;;;;;5148070;27;20034;-68
2022/12/06 00:03:30;;;;;;;17.42;7.47;;;;;;;;;;5151145;27;20033;-69
2022/12/06 00:06:03;;;;;;;18.05;6.95;;;;;;;;;;5146907;27;20030;-68
2022/12/06 00:08:28;;;;;;;16.10;7.05;;;;;;;;;;5148471;27;20105;-69
2022/12/06 00:10:54;;;;;;;16.90;6.32;;;;;;;;;;5148055;27;20413;-69
2022/12/06 00:13:19;;;;;;;25.15;6.85;;;;;;;;;;5148854;27;20022;-69
2022/12/06 00:15:44;;;;;;;14.05;6.55;;;;;;;;;;5126521;27;20412;-69
2022/12/06 00:18:09;;;;;;;15.50;6.70;;;;;;;;;;5126771;27;20114;-69
2022/12/06 00:20:35;;;;;;;17.23;6.50;;;;;;;;;;5124391;27;20031;-68
2022/12/06 00:23:00;;;;;;;15.43;6.57;;;;;;;;;;5130360;27;20031;-69
2022/12/06 00:25:25;;;;;;;14.50;5.97;;;;;;;;;;5127683;27;20039;-67
2022/12/06 00:27:50;;;;;;;15.40;6.33;;;;;;;;;;5123516;27;20267;-69
2022/12/06 00:30:16;;;;;;;13.15;6.15;;;;;;;;;;5125270;27;20287;-69
2022/12/06 00:32:41;;;;;;;13.77;6.50;;;;;;;;;;5130001;27;20030;-69
2022/12/06 00:35:06;;;;;;;15.80;6.40;;;;;;;;;;5123483;27;20035;-69
2022/12/06 00:37:31;;;;;;;12.03;5.63;;;;;;;;;;5129895;27;20283;-69
2022/12/06 00:39:57;;;;;;;15.20;6.20;;;;;;;;;;5128601;27;20318;-68
2022/12/06 00:42:22;;;;;;;12.20;6.67;;;;;;;;;;5124649;27;20328;-67
2022/12/06 00:44:47;;;;;;;14.82;6.15;;;;;;;;;;5129294;27;20058;-69
2022/12/06 00:47:13;;;;;;;15.60;6.90;;;;;;;;;;5129414;27;20023;-70
2022/12/06 00:49:38;;;;;;;12.77;6.30;;;;;;;;;;5127810;27;20358;-68
2022/12/06 00:52:03;;;;;;;15.93;6.37;;;;;;;;;;5130793;27;20172;-69
2022/12/06 00:54:28;;;;;;;17.17;6.45;;;;;;;;;;5128839;27;20260;-69
2022/12/06 00:56:54;;;;;;;13.07;6.00;;;;;;;;;;5126222;27;20023;-69
2022/12/06 00:59:19;;;;;;;12.43;6.50;;;;;;;;;;5129195;27;20035;-69
2022/12/06 01:01:44;;;;;;;15.70;6.53;;;;;;;;;;5127535;27;20787;-69
2022/12/06 01:04:09;;;;;;;14.93;5.73;;;;;;;;;;5127108;27;20400;-69
2022/12/06 01:06:35;;;;;;;13.33;5.90;;;;;;;;;;5127838;27;20384;-69
2022/12/06 01:09:02;;;;;;;14.93;6.13;;;;;;;;;;5125402;27;20385;-69
2022/12/06 01:11:28;;;;;;;13.25;6.45;;;;;;;;;;5127617;27;20031;-69
2022/12/06 01:13:53;;;;;;;13.57;6.35;;;;;;;;;;5133459;27;20046;-69
2022/12/06 01:16:23;;;;;;;13.40;5.80;;;;;;;;;;5124335;27;20031;-69
2022/12/06 01:18:51;;;;;;;15.02;5.82;;;;;;;;;;5126487;27;20031;-69
2022/12/06 01:21:17;;;;;;;12.77;6.05;;;;;;;;;;5144180;27;20035;-69
2022/12/06 01:23:43;;;;;;;15.20;6.40;;;;;;;;;;5150750;27;20067;-69
2022/12/06 01:26:20;;;;;;;13.35;5.97;;;;;;;;;;5128312;27;20035;-70
2022/12/06 01:28:45;;;;;;;12.35;6.25;;;;;;;;;;5148097;27;20175;-69
2022/12/06 01:31:11;;;;;;;14.15;5.80;;;;;;;;;;5148083;27;20118;-69
2022/12/06 01:33:36;;;;;;;11.63;5.28;;;;;;;;;;5145813;27;20027;-69
2022/12/06 01:36:01;;;;;;;11.13;5.27;;;;;;;;;;5146910;27;20030;-67
2022/12/06 01:38:27;;;;;;;11.13;5.03;;;;;;;;;;5146502;27;20779;-67
2022/12/06 01:40:52;;;;;;;12.87;6.00;;;;;;;;;;5148564;27;20019;-68
2022/12/06 01:43:34;;;;;;;12.70;5.37;;;;;;;;;;5148525;27;20122;-67
2022/12/06 01:46:02;;;;;;;13.80;5.75;;;;;;;;;;5146923;27;20285;-66
2022/12/06 01:48:27;;;;;;;14.10;5.78;;;;;;;;;;5143304;27;20107;-68
2022/12/06 01:50:54;;;;;;;15.10;5.30;;;;;;;;;;5148806;27;20209;-68
2022/12/06 01:53:20;;;;;;;15.13;5.45;;;;;;;;;;5145293;27;20034;-68
2022/12/06 01:55:45;;;;;;;12.43;5.07;;;;;;;;;;5123388;27;20023;-68
2022/12/06 01:58:23;;;;;;;13.82;6.60;;;;;;;;;;5147994;27;20063;-68
2022/12/06 02:00:49;;;;;;;16.70;5.85;;;;;;;;;;5129158;27;20427;-68
2022/12/06 02:03:18;;;;;;;13.05;5.45;;;;;;;;;;5121790;27;20022;-67
2022/12/06 02:05:43;;;;;;;13.57;5.30;;;;;;;;;;5131424;27;20117;-68
2022/12/06 02:08:09;;;;;;;12.00;5.10;;;;;;;;;;5128862;27;20907;-68
2022/12/06 02:10:35;;;;;;;12.90;5.32;;;;;;;;;;5142198;27;20488;-67
2022/12/06 02:13:01;;;;;;;12.00;5.28;;;;;;;;;;5146595;27;20065;-67
2022/12/06 02:15:49;;;;;;;13.27;5.47;;;;;;;;;;5148356;27;20411;-67
2022/12/06 02:18:27;;;;;;;10.70;5.50;;;;;;;;;;5146653;27;20039;-67
2022/12/06 02:21:03;;;;;;;11.67;5.53;;;;;;;;;;5146835;27;20102;-68
2022/12/06 02:23:37;;;;;;;10.73;5.10;;;;;;;;;;5128203;27;20388;-68
2022/12/06 02:26:41;;;;;;;10.15;4.70;;;;;;;;;;5148529;27;20030;-68
2022/12/06 02:29:06;;;;;;;11.45;5.53;;;;;;;;;;5045521;28;20037;-67
2022/12/06 02:31:44;;;;;;;17.23;5.47;;;;;;;;;;5044472;28;20041;-67
2022/12/06 02:34:13;;;;;;;9.65;4.93;;;;;;;;;;5047187;28;20285;-68
2022/12/06 02:36:50;;;;;;;16.20;6.85;;;;;;;;;;5046617;28;20131;-69
2022/12/06 02:39:18;;;;;;;9.38;5.13;;;;;;;;;;5042960;28;20087;-68
2022/12/06 02:41:58;;;;;;;13.90;4.93;;;;;;;;;;5046195;28;20033;-69
2022/12/06 02:44:27;;;;;;;12.05;5.65;;;;;;;;;;5045818;28;20033;-68
2022/12/06 02:46:54;;;;;;;11.82;5.03;;;;;;;;;;5046949;28;20041;-69
2022/12/06 02:49:21;;;;;;;10.88;5.28;;;;;;;;;;5047121;28;20044;-68
2022/12/06 02:51:46;;;;;;;10.95;5.07;;;;;;;;;;5049536;28;20776;-68
2022/12/06 02:54:12;;;;;;;10.65;5.03;;;;;;;;;;5049137;28;20041;-69
2022/12/06 02:56:37;;;;;;;12.70;5.00;;;;;;;;;;5051188;28;20037;-68
2022/12/06 02:59:03;;;;;;;10.88;4.80;;;;;;;;;;5064205;27;20049;-68
2022/12/06 03:01:32;;;;;;;10.75;5.22;;;;;;;;;;5151558;27;20022;-68
2022/12/06 03:03:58;;;;;;;9.82;4.88;;;;;;;;;;5148922;27;20038;-68
2022/12/06 03:06:29;;;;;;;8.60;4.73;;;;;;;;;;5150850;27;20468;-68
2022/12/06 03:09:04;;;;;;;10.70;5.03;;;;;;;;;;5147335;27;20274;-68
2022/12/06 03:11:55;;;;;;;10.88;5.30;;;;;;;;;;5151318;27;20402;-68
2022/12/06 03:14:23;;;;;;;9.93;5.00;;;;;;;;;;5112137;27;20085;-69
2022/12/06 03:17:03;;;;;;;10.57;5.07;;;;;;;;;;5130814;27;20030;-69
2022/12/06 03:19:29;;;;;;;11.50;5.53;;;;;;;;;;5137427;27;20058;-68
2022/12/06 03:21:58;;;;;;;12.27;4.97;;;;;;;;;;5149817;27;20023;-68
2022/12/06 03:24:24;;;;;;;11.65;5.28;;;;;;;;;;5131411;27;20034;-69
2022/12/06 03:26:50;;;;;;;12.00;5.47;;;;;;;;;;5152054;27;20528;-69
2022/12/06 03:29:17;;;;;;;9.77;5.10;;;;;;;;;;5151114;27;20101;-67
2022/12/06 03:31:44;;;;;;;9.60;4.70;;;;;;;;;;5148332;27;20034;-68
2022/12/06 03:34:11;;;;;;;12.75;5.30;;;;;;;;;;5148137;27;20022;-69
2022/12/06 03:36:37;;;;;;;14.07;5.63;;;;;;;;;;5148882;27;20496;-68
2022/12/06 03:39:03;;;;;;;12.13;5.38;;;;;;;;;;5147606;27;20051;-68
2022/12/06 03:41:36;;;;;;;12.50;5.75;;;;;;;;;;5131241;27;20031;-68
2022/12/06 03:44:01;;;;;;;11.63;5.18;;;;;;;;;;5133831;27;20475;-68
2022/12/06 03:46:29;;;;;;;9.93;5.30;;;;;;;;;;5152126;27;20034;-69
2022/12/06 03:48:59;;;;;;;13.38;5.18;;;;;;;;;;5146219;27;20057;-68
2022/12/06 03:51:27;;;;;;;12.30;5.40;;;;;;;;;;5146325;27;20055;-69
2022/12/06 03:53:53;;;;;;;12.10;5.10;;;;;;;;;;5150409;27;20034;-68
2022/12/06 03:56:19;;;;;;;12.55;5.60;;;;;;;;;;5152130;27;20084;-69
2022/12/06 03:58:44;;;;;;;10.00;5.47;;;;;;;;;;5149595;27;20068;-68
2022/12/06 04:01:10;;;;;;;14.43;5.85;;;;;;;;;;5151019;27;21709;-68
2022/12/06 04:03:36;;;;;;;10.07;5.43;;;;;;;;;;5149076;27;20106;-68
2022/12/06 04:06:01;;;;;;;13.30;5.90;;;;;;;;;;5146848;27;20313;-68
2022/12/06 04:08:26;;;;;;;15.52;5.97;;;;;;;;;;5148718;27;20121;-68
2022/12/06 04:10:52;;;;;;;12.63;6.37;;;;;;;;;;5147490;27;20015;-69
2022/12/06 04:13:17;;;;;;;14.17;5.97;;;;;;;;;;5131998;27;20801;-68
2022/12/06 04:15:42;;;;;;;16.85;6.30;;;;;;;;;;5152469;27;20527;-68
2022/12/06 04:18:10;;;;;;;25.23;8.27;;;;;;;;;;5144939;27;20015;-68
2022/12/06 04:23:22;;;;;;;17.40;6.80;;;;;;;;;;5147190;27;20098;-68
2022/12/06 04:25:47;;;;;;;16.70;7.13;;;;;;;;;;5148950;27;20034;-68
2022/12/06 04:39:08;;;;;;;19.17;5.85;;;;;;;;;;5143246;27;20045;-69
2022/12/06 04:44:17;;;;;;;16.38;6.28;;;;;;;;;;5146586;27;20502;-69
2022/12/06 04:46:42;;;;;;;17.77;5.50;;;;;;;;;;5151218;27;20022;-69
2022/12/06 04:49:08;;;;;;;15.43;5.30;;;;;;;;;;5147011;27;20034;-68
2022/12/06 04:51:33;;;;;;;11.10;5.30;;;;;;;;;;5148876;27;20030;-67
2022/12/06 04:53:58;;;;;;;11.63;5.35;;;;;;;;;;5145483;27;20275;-68
2022/12/06 04:56:24;;;;;;;12.02;5.80;;;;;;;;;;5140497;27;20078;-68
2022/12/06 04:58:49;;;;;;;12.75;5.63;;;;;;;;;;5148098;27;20022;-68
2022/12/06 05:01:14;;;;;;;13.05;5.78;;;;;;;;;;5150117;27;20034;-68
2022/12/06 05:03:39;;;;;;;15.50;5.10;;;;;;;;;;5147343;27;20075;-68
2022/12/06 05:06:05;;;;;;;14.20;5.50;;;;;;;;;;5147410;27;20027;-68
2022/12/06 05:08:30;;;;;;;13.15;4.95;;;;;;;;;;5145768;27;20022;-68
2022/12/06 05:10:55;;;;;;;9.82;5.15;;;;;;;;;;5136124;27;20027;-68
2022/12/06 05:13:21;;;;;;;13.20;5.00;;;;;;;;;;5144509;27;20029;-68
2022/12/06 05:15:50;;;;;;;12.70;5.37;;;;;;;;;;5122628;27;20287;-67
2022/12/06 05:18:15;;;;;;;10.88;5.40;;;;;;;;;;5142472;27;20457;-68
2022/12/06 05:20:40;;;;;;;13.43;5.17;;;;;;;;;;5127652;27;20117;-68
2022/12/06 05:23:06;;;;;;;13.43;5.50;;;;;;;;;;5141515;27;20289;-67
2022/12/06 05:25:31;;;;;;;13.03;5.40;;;;;;;;;;5126037;27;20038;-68
2022/12/06 05:27:56;;;;;;;12.07;5.77;;;;;;;;;;5147182;27;20040;-68
2022/12/06 05:30:21;;;;;;;13.27;5.73;;;;;;;;;;5147027;27;20035;-69
2022/12/06 05:32:47;;;;;;;17.83;6.10;;;;;;;4.21;nan;100706.19;5126598;27;20018;-69
2022/12/06 05:35:13;;;;;;;18.58;6.15;;;;;;;;;;5150486;27;20023;-70
2022/12/06 05:37:38;;;;;;;13.80;6.20;;;;;;;;;;5129589;27;20532;-68
2022/12/06 05:40:04;;;;;;;13.45;6.75;;;;;;;;;;5147201;27;20095;-68
2022/12/06 05:42:29;;;;;;;14.73;6.90;;;;;;;;;;5145132;27;20528;-68
2022/12/06 05:44:54;;;;;;;15.50;7.30;;;;;;;;;;5147919;27;20026;-69
2022/12/06 05:47:19;;;;;;;17.87;7.13;;;;;;;;;;5147898;27;20285;-69
2022/12/06 05:49:44;;;;;;;17.30;8.03;;;;;;;;;;5127885;27;20030;-68
2022/12/06 05:52:10;;;;;;;20.93;8.50;;;;;;;;;;5131733;27;20494;-68
2022/12/06 05:54:35;;;;;;;15.87;8.33;;;;;;;;;;5126949;27;20653;-69
2022/12/06 05:57:00;;;;;;;14.57;7.70;;;;;;;;;;5125519;27;20278;-69
2022/12/06 05:59:25;;;;;;;13.80;6.90;;;;;;;;;;5138977;27;20099;-70
2022/12/06 06:01:51;;;;;;;14.10;6.63;;;;;;;;;;5145189;27;20141;-69
2022/12/06 06:04:16;;;;;;;14.88;6.20;;;;;;;;;;5126782;27;20066;-70
2022/12/06 06:06:41;;;;;;;12.30;5.60;;;;;;;;;;5125272;27;20556;-69
2022/12/06 06:09:07;;;;;;;13.30;5.60;;;;;;;;;;5148202;27;20295;-69
2022/12/06 06:11:32;;;;;;;14.27;5.60;;;;;;;;;;5149585;27;20273;-69
2022/12/06 06:13:57;;;;;;;10.37;5.07;;;;;;;;;;5146394;27;20047;-69
2022/12/06 06:16:22;;;;;;;11.43;5.13;;;;;;;;;;5148710;27;20524;-70
2022/12/06 06:18:48;;;;;;;11.30;5.57;;;;;;;;;;5149390;27;20271;-70
2022/12/06 06:21:13;;;;;;;10.80;5.70;;;;;;;;;;5145990;27;20022;-70
2022/12/06 06:23:38;;;;;;;12.50;6.10;;;;;;;;;;5126598;27;20030;-69
2022/12/06 06:26:07;;;;;;;11.30;6.43;;;;;;;;;;5154296;27;20464;-69
2022/12/06 06:28:32;;;;;;;13.95;6.88;;;;;;;;;;5153037;27;20089;-69
2022/12/06 06:31:01;;;;;;;12.67;6.10;;;;;;;;;;5155824;27;20148;-69
2022/12/06 06:33:26;;;;;;;11.43;5.82;;;;;;;;;;5151495;27;20735;-68
2022/12/06 06:35:51;;;;;;;11.43;5.13;;;;;;;;;;5155039;27;20107;-65
2022/12/06 06:38:16;;;;;;;12.53;6.03;;;;;;;;;;5154825;27;20479;-64
2022/12/06 06:40:41;;;;;;;12.83;5.97;;;;;;;;;;5152465;27;20460;-68
2022/12/06 06:43:19;;;;;;;14.50;6.40;;;;;;;;;;5154467;27;20038;-67
2022/12/06 06:46:01;;;;;;;14.90;6.97;;;;;;;;;;5151943;27;20023;-67
2022/12/06 06:48:27;;;;;;;22.92;7.47;;;;;;;;;;5153005;27;20034;-68
2022/12/06 06:50:53;;;;;;;21.48;8.23;;;;;;;;;;5131202;27;20026;-68
2022/12/06 06:53:18;;;;;;;22.52;8.77;;;;;;;;;;5152900;27;20025;-68
2022/12/06 06:55:44;;;;;;;21.75;8.63;;;;;;;;;;5154389;27;20029;-68
2022/12/06 06:58:09;;;;;;;30.85;9.63;;;;;;;;;;5154371;27;20022;-67
2022/12/06 07:00:35;;;;;;;26.80;9.17;;;;;;;;;;5156149;27;20480;-68
2022/12/06 07:03:00;;;;;;;25.13;9.10;;;;;;;;;;5152322;27;20263;-68
2022/12/06 07:05:26;;;;;;;27.38;9.43;;;;;;;;;;5151198;27;20286;-68
2022/12/06 07:07:51;;;;;;;21.25;8.73;;;;;;;;;;5152402;27;20031;-68
2022/12/06 07:10:17;;;;;;;35.55;13.20;;;;;;;5.37;nan;100717.09;5149654;27;20030;-68
2022/12/06 07:12:42;;;;;;;38.70;15.32;;;;;;;5.20;nan;100659.84;5129914;27;20098;-68
2022/12/06 07:15:08;;;;;;;71.60;20.15;;;;;;;5.32;nan;100662.81;5152845;27;20047;-68
2022/12/06 07:17:34;;;;;;;36.42;13.90;;;;;;;5.48;nan;100685.25;5149660;27;20041;-69
2022/12/06 07:19:59;;;;;;;32.40;12.48;;;;;;;;;;5152958;27;20061;-69
2022/12/06 07:22:24;;;;;;;33.50;12.57;;;;;;;;;;5147545;27;20026;-69
2022/12/06 07:24:49;;;;;;;30.80;11.20;;;;;;;;;;5149184;27;20275;-69
2022/12/06 07:27:14;;;;;;;39.87;11.77;;;;;;;;;;5151829;27;20101;-68
2022/12/06 07:29:40;;;;;;;30.30;12.43;;;;;;;;;;5154236;27;20621;-69
2022/12/06 07:32:05;;;;;;;29.67;11.73;;;;;;;;;;5125532;27;20115;-69
2022/12/06 07:34:30;;;;;;;28.13;11.70;;;;;;;;;;5152127;27;20294;-69
2022/12/06 07:36:55;;;;;;;24.90;11.40;;;;;;;;;;5150574;27;20034;-68
2022/12/06 07:39:21;;;;;;;26.20;11.13;;;;;;;;;;5127914;27;20110;-68
2022/12/06 07:47:14;;;;;;;25.95;9.25;;;;;;;;;;5150329;27;20091;-67
2022/12/06 07:49:39;;;;;;;20.30;9.77;;;;;;;;;;5152668;27;20421;-69
2022/12/06 07:52:04;;;;;;;14.98;8.07;;;;;;;;;;5150679;27;20278;-69
2022/12/06 07:54:30;;;;;;;18.17;7.47;;;;;;;;;;5134260;27;20027;-68
2022/12/06 07:56:55;;;;;;;13.63;5.93;;;;;;;;;;5149331;27;20020;-68
2022/12/06 07:59:20;;;;;;;12.80;5.33;;;;;;;;;;5152601;27;20033;-68
2022/12/06 08:01:45;;;;;;;10.73;5.47;;;;;;;;;;5152246;27;20635;-68
2022/12/06 08:04:11;;;;;;;14.03;5.70;;;;;;;;;;5145813;27;20361;-68
2022/12/06 08:06:36;;;;;;;13.38;5.57;;;;;;;;;;5150807;27;20635;-68
2022/12/06 08:09:02;;;;;;;14.57;5.50;;;;;;;;;;5149956;27;20139;-68
2022/12/06 08:11:27;;;;;;;12.85;5.10;;;;;;;;;;5149951;27;20491;-70
2022/12/06 08:13:53;;;;;;;13.68;5.05;;;;;;;;;;5128017;27;20046;-70
2022/12/06 08:16:18;;;;;;;14.77;5.57;;;;;;;;;;5128904;27;20062;-69
2022/12/06 08:18:43;;;;;;;14.83;5.23;;;;;;;;;;5145357;27;20021;-68
2022/12/06 08:21:09;;;;;;;16.27;6.43;;;;;;;;;;5134298;27;20062;-68
2022/12/06 08:23:34;;;;;;;16.75;6.03;;;;;;;;;;5147918;27;20464;-69
2022/12/06 08:26:01;;;;;;;19.08;5.50;;;;;;;;;;5125447;27;20030;-68
2022/12/06 08:28:27;;;;;;;16.77;7.50;;;;;;;;;;5149862;27;20023;-68
2022/12/06 08:30:53;;;;;;;15.48;7.10;;;;;;;;;;5145605;27;20046;-67
2022/12/06 08:33:18;;;;;;;15.95;7.50;;;;;;;;;;5146207;27;20081;-68
2022/12/06 08:35:43;;;;;;;19.50;8.13;;;;;;;;;;5152138;27;20587;-68
2022/12/06 08:38:08;;;;;;;19.30;7.53;;;;;;;;;;5152498;27;20326;-68
2022/12/06 08:40:34;;;;;;;21.77;7.27;;;;;;;;;;5150088;27;20018;-68
2022/12/06 08:42:59;;;;;;;13.83;6.37;;;;;;;;;;5132517;27;20039;-68
2022/12/06 08:45:24;;;;;;;13.97;6.20;;;;;;;;;;5152002;27;20047;-68
2022/12/06 08:47:49;;;;;;;16.50;5.83;;;;;;;;;;5126504;27;20015;-68
2022/12/06 08:50:15;;;;;;;13.17;5.87;;;;;;;;;;5130081;27;20353;-67
2022/12/06 08:52:40;;;;;;;16.20;6.43;;;;;;;;;;5147230;27;20029;-68
2022/12/06 08:55:05;;;;;;;12.10;6.17;;;;;;;;;;5148278;27;20038;-68
2022/12/06 08:57:31;;;;;;;17.25;6.95;;;;;;;;;;5147072;27;20030;-68
2022/12/06 08:59:56;;;;;;;13.30;6.68;;;;;;;;;;5132243;27;20033;-68
2022/12/06 09:02:21;;;;;;;13.67;5.43;;;;;;;;;;5126459;27;20019;-68
2022/12/06 09:04:48;;;;;;;12.57;5.43;;;;;;;;;;5127301;27;20275;-68
2022/12/06 09:07:14;;;;;;;11.77;6.85;;;;;;;;;;5128210;27;20026;-69
2022/12/06 09:09:39;;;;;;;15.40;5.20;;;;;;;;;;5149366;27;20365;-68
2022/12/06 09:12:05;;;;;;;12.25;6.43;;;;;;;;;;5147155;27;20341;-68
2022/12/06 09:14:30;;;;;;;10.75;5.22;;;;;;;;;;5148514;27;20077;-67
2022/12/06 09:16:55;;;;;;;10.60;5.07;;;;;;;;;;5146789;27;20071;-68
2022/12/06 09:19:20;;;;;;;14.20;5.77;;;;;;;;;;5147520;27;20031;-68
2022/12/06 09:21:46;;;;;;;12.13;4.90;;;;;;;;;;5145255;27;20027;-69
2022/12/06 09:24:12;;;;;;;12.57;5.30;;;;;;;;;;5148889;27;20896;-69
2022/12/06 09:26:37;;;;;;;13.68;5.10;;;;;;;;;;5149931;27;20274;-68
2022/12/06 09:29:03;;;;;;;12.53;4.90;;;;;;;;;;5146831;27;20049;-68
2022/12/06 09:31:28;;;;;;;10.43;5.30;;;;;;;;;;5128272;27;20267;-69
2022/12/06 09:33:53;;;;;;;11.57;4.83;;;;;;;;;;5147030;27;20623;-69
2022/12/06 09:36:26;;;;;;;8.95;4.38;;;;;;;;;;5125739;27;20278;-69
2022/12/06 09:38:54;;;;;;;10.13;4.28;;;;;;;;;;5147439;27;20082;-69
2022/12/06 09:41:20;;;;;;;10.00;3.78;;;;;;;;;;5150793;27;20030;-70
2022/12/06 09:44:12;;;;;;;8.25;3.65;;;;;;;;;;5149447;27;20528;-70
2022/12/06 09:46:37;;;;;;;8.38;3.70;;;;;;;;;;5118302;27;20015;-70
2022/12/06 09:49:14;;;;;;;7.83;3.73;;;;;;;;;;5149833;27;20034;-70
2022/12/06 09:51:49;;;;;;;8.27;3.50;;;;;;;;;;5146439;27;20033;-68
2022/12/06 09:54:20;;;;;;;10.05;3.70;;;;;;;;;;5147963;27;20027;-68
2022/12/06 09:56:57;;;;;;;9.15;3.90;;;;;;;;;;5148317;27;20015;-68
2022/12/06 09:59:44;;;;;;;8.35;4.03;;;;;;;8.54;nan;100629.06;5125633;27;20038;-68
2022/12/06 10:02:22;;;;;;;7.68;3.50;;;;;;;8.62;nan;100630.66;5147625;27;20557;-69
2022/12/06 10:05:15;;;;;;;10.15;4.03;;;;;;;8.60;nan;100628.25;5143071;27;20058;-69
2022/12/06 10:07:53;;;;;;;9.88;3.97;;;;;;;8.60;nan;100620.38;5150536;27;20026;-69
2022/12/06 10:10:36;;;;;;;6.90;3.45;;;;;;;8.50;nan;100591.16;5144053;27;20023;-68
2022/12/06 10:13:16;;;;;;;9.40;3.90;;;;;;;8.62;nan;100599.16;5129285;27;20033;-69
2022/12/06 10:16:00;;;;;;;9.30;3.85;;;;;;;8.63;nan;100604.22;5149062;27;20041;-69
2022/12/06 10:18:41;;;;;;;8.90;3.67;;;;;;;8.65;nan;100612.69;5129115;27;20472;-69
2022/12/06 10:21:15;;;;;;;7.55;3.60;;;;;;;8.72;nan;100604.81;5144892;27;20743;-69
2022/12/06 10:24:05;;;;;;;8.82;4.40;;;;;;;8.79;nan;100596.88;5126358;27;20090;-68
2022/12/06 10:26:37;;;;;;;8.90;4.32;;;;;;;8.89;nan;100587.56;5126788;27;20502;-68
2022/12/06 10:29:08;;;;;;;9.27;4.32;;;;;;;9.06;nan;100595.75;5147028;27;20023;-68
2022/12/06 10:32:00;;;;;;;10.88;4.68;;;;;;;9.20;nan;100593.88;5150021;27;20026;-69
2022/12/06 10:34:47;;;;;;;9.48;3.65;;;;;;;9.23;nan;100577.69;5148180;27;20054;-68
2022/12/06 10:37:38;;;;;;;7.93;3.97;;;;;;;9.37;nan;100596.81;5144100;27;20030;-68
2022/12/06 10:40:15;;;;;;;9.38;3.92;;;;;;;9.33;nan;100592.97;5148122;27;20026;-69
2022/12/06 10:42:48;;;;;;;10.57;4.03;;;;;;;9.37;nan;100587.09;5149366;27;20018;-68
2022/12/06 10:49:16;;;;;;;7.68;3.63;;;;;;;9.60;nan;100609.41;5045481;28;20063;-69
2022/12/06 10:51:52;;;;;;;7.60;3.95;;;;;;;9.60;nan;100598.91;5041419;28;20078;-69
2022/12/06 10:54:28;;;;;;;12.82;4.57;;;;;;;9.57;nan;100597.47;5029185;28;20426;-69
2022/12/06 10:56:59;;;;;;;8.75;4.28;;;;;;;9.52;nan;100586.00;5044465;28;20068;-69
2022/12/06 10:59:38;;;;;;;10.38;4.40;;;;;;;9.55;nan;100575.88;5046228;28;20040;-69
2022/12/06 11:02:20;;;;;;;9.23;4.20;;;;;;;9.50;nan;100582.75;5026301;28;20025;-69
2022/12/06 11:04:48;;;;;;;9.32;4.32;;;;;;;9.49;nan;100576.72;5046329;28;20075;-69
2022/12/06 11:07:39;;;;;;;15.00;4.55;;;;;;;9.52;nan;100594.69;5047841;28;20044;-69
2022/12/06 11:10:22;;;;;;;10.93;4.30;;;;;;;9.50;nan;100594.06;5045094;28;20394;-69
2022/12/06 11:12:52;;;;;;;8.93;3.67;;;;;;;9.49;nan;100597.72;5050735;28;20063;-69
2022/12/06 11:15:33;;;;;;;7.25;4.10;;;;;;;9.47;nan;100594.50;5034037;28;20414;-69
2022/12/06 11:18:15;;;;;;;7.07;4.13;;;;;;;9.49;nan;100589.84;5035545;27;20113;-69
2022/12/06 11:20:52;;;;;;;9.63;4.53;;;;;;;9.44;nan;100578.38;5124698;27;20011;-69
2022/12/06 11:23:44;;;;;;;10.98;4.97;;;;;;;9.45;nan;100582.59;5131310;27;20027;-69
2022/12/06 11:26:37;;;;;;;9.25;4.95;;;;;;;9.44;nan;100584.44;5130553;27;20089;-68
2022/12/06 11:29:08;;;;;;;11.13;4.15;;;;;;;9.35;nan;100581.25;5131398;27;20148;-69
2022/12/06 11:31:43;;;;;;;9.60;4.20;;;;;;;9.31;nan;100579.25;5129840;27;20117;-68
2022/12/06 11:34:17;;;;;;;6.80;3.72;;;;;;;9.25;nan;100569.59;5126775;27;20164;-69
2022/12/06 11:36:44;;;;;;;12.07;4.32;;;;;;;9.25;nan;100569.59;5127522;27;20042;-69
2022/12/06 11:39:13;;;;;;;10.30;4.15;;;;;;;9.23;nan;100555.88;5130274;27;20023;-69
2022/12/06 11:41:38;;;;;;;9.13;5.07;;;;;;;9.21;nan;100563.94;5130223;27;20023;-69
2022/12/06 11:44:05;;;;;;;9.20;4.22;;;;;;;9.23;nan;100564.53;5130380;27;20358;-69
2022/12/06 11:46:30;;;;;;;9.13;4.10;;;;;;;9.21;nan;100555.25;5132346;27;20023;-69
2022/12/06 11:49:11;;;;;;;6.70;4.00;;;;;;;9.08;nan;100541.19;5129957;27;20425;-69
2022/12/06 11:51:37;;;;;;;12.48;4.47;;;;;;;9.13;nan;100548.44;5134105;27;20034;-70
2022/12/06 11:54:41;;;;;;;6.05;3.80;;;;;;;9.10;nan;100554.94;5133112;27;20031;-70
2022/12/06 11:57:20;;;;;;;7.80;4.28;;;;;;;9.10;nan;100554.94;5120927;27;20035;-69
2022/12/06 12:00:17;;;;;;;9.13;3.47;;;;;;;9.08;nan;100554.34;5133202;27;20020;-69
2022/12/06 12:02:45;;;;;;;7.50;4.22;;;;;;;9.02;nan;100547.28;5127438;27;20018;-68
2022/12/06 12:05:24;;;;;;;5.93;3.60;;;;;;;9.02;nan;100555.16;5125148;27;20504;-69
2022/12/06 12:07:58;;;;;;;8.20;3.83;;;;;;;8.99;nan;100552.97;5131274;27;20080;-69
2022/12/06 12:10:27;;;;;;;8.48;4.53;;;;;;;8.93;nan;100553.78;5128050;27;20027;-68
2022/12/06 12:15:39;;;;;;;9.60;4.00;;;;;;;8.94;nan;100555.41;5149589;27;20097;-68
2022/12/06 12:18:05;;;;;;;6.97;4.07;;;;;;;8.93;nan;100548.53;5149694;27;20029;-68
2022/12/06 12:20:37;;;;;;;8.07;3.88;;;;;;;8.88;nan;100549.19;5151091;27;20019;-68
2022/12/06 12:23:13;;;;;;;6.75;4.25;;;;;;;8.92;nan;100557.44;5146465;27;20434;-68
2022/12/06 12:25:41;;;;;;;19.67;8.38;;;;;;;8.88;nan;100549.19;5150118;27;20030;-68
2022/12/06 12:28:28;;;;;;;15.40;6.72;;;;;;;8.88;nan;100548.38;5147736;27;20019;-68
2022/12/06 12:30:56;;;;;;;81.03;31.20;;;;;;;8.88;nan;100548.38;5129348;27;20033;-68
2022/12/06 12:33:29;;;;;;;52.85;28.65;;;;;;;8.75;nan;100532.69;5149377;27;20022;-68
2022/12/06 12:36:12;;;;;;;29.27;16.25;;;;;;;8.79;nan;100541.75;5148630;27;20019;-68
2022/12/06 12:38:42;;;;;;;56.95;32.60;;;;;;;8.79;nan;100549.63;5132278;27;20487;-68
2022/12/06 12:41:40;;;;;;;30.60;18.77;;;;;;;8.73;nan;100546.81;5148842;27;20059;-68
2022/12/06 12:44:15;;;;;;;36.13;20.85;;;;;;;8.60;nan;100532.97;5130198;27;20015;-68
2022/12/06 12:46:48;;;;;;;12.50;6.93;;;;;;;8.63;nan;100558.78;5147771;27;20027;-68
2022/12/06 12:49:27;;;;;;;20.23;11.25;;;;;;;8.54;nan;100542.47;5145986;27;20472;-68
2022/12/06 12:51:53;;;;;;;;;;;;;;;8.52;nan;100542.69;5131035;27;20027;-68
2022/12/06 12:54:21;;;;;;;8.38;5.43;;;;;;;8.46;nan;100538.25;5147929;27;19915;-68
2022/12/06 12:56:47;;;;;;;13.40;6.40;;;;;;;8.33;nan;100519.88;5150788;27;20056;-68
2022/12/06 12:59:16;;;;;;;15.80;6.97;;;;;;;8.38;nan;100537.63;5130015;27;20496;-68
2022/12/06 13:01:52;;;;;;;13.27;6.68;;;;;;;8.33;nan;100527.75;5150399;27;20015;-68
2022/12/06 13:04:44;;;;;;;15.75;7.07;;;;;;;8.30;nan;100528.97;5146638;27;20058;-68
2022/12/06 13:07:30;;;;;;;13.77;6.60;;;;;;;8.28;nan;100528.41;5149744;27;20752;-67
2022/12/06 13:10:28;;;;;;;16.20;7.47;;;;;;;8.13;nan;100511.28;5148419;27;20475;-68
2022/12/06 13:12:59;;;;;;;8.73;5.63;;;;;;;8.21;nan;100527.63;5144647;27;20018;-68
2022/12/06 13:15:30;;;;;;;19.05;6.25;;;;;;;8.17;nan;100526.41;5148480;27;20055;-68
2022/12/06 13:18:00;;;;;;;12.57;5.95;;;;;;;8.15;nan;100525.78;5143879;27;20046;-68
2022/12/06 13:20:31;;;;;;;11.02;5.75;;;;;;;8.11;nan;100524.59;5128806;27;20039;-67
2022/12/06 13:23:10;;;;;;;13.50;6.38;;;;;;;8.05;nan;100528.03;5148133;27;20552;-67
2022/12/06 13:25:35;;;;;;;9.93;5.75;;;;;;;7.97;nan;100525.63;5148075;27;20031;-67
2022/12/06 13:28:03;;;;;;;15.20;6.25;;;;;;;8.01;nan;100540.75;5150531;27;20079;-67
2022/12/06 13:30:32;;;;;;;12.88;6.88;;;;;;;7.98;nan;100543.00;5146781;27;20019;-68
2022/12/06 13:33:01;;;;;;;16.70;6.70;;;;;;;7.88;nan;100543.41;5147455;27;20056;-68
2022/12/06 13:35:28;;;;;;;;;;;;;;;7.93;nan;100546.22;5126122;27;20031;-68
2022/12/06 13:38:18;;;;;;;10.73;5.38;;;;;;;7.88;nan;100554.69;5148969;27;19919;-68
2022/12/06 13:40:58;;;;;;;11.55;6.30;;;;;;;7.87;nan;100549.63;5148128;27;20023;-68
2022/12/06 13:43:23;;;;;;;;;;;;;;;7.83;nan;100543.22;5149539;27;20514;-68
2022/12/06 13:45:49;;;;;;;11.80;5.70;;;;;;;7.79;nan;100545.41;5147784;27;19938;-68
2022/12/06 13:48:24;;;;;;;15.23;6.13;;;;;;;7.75;nan;100533.72;5146123;27;20381;-68
2022/12/06 13:51:00;;;;;;;12.63;6.88;;;;;;;7.70;nan;100525.66;5148810;27;20075;-67
2022/12/06 13:53:32;;;;;;;16.60;6.60;;;;;;;7.38;nan;100488.78;5123479;27;20046;-68
2022/12/06 13:56:23;;;;;;;17.13;6.50;;;;;;;7.63;nan;100532.72;5147157;27;20028;-67
2022/12/06 13:58:52;;;;;;;13.80;6.88;;;;;;;7.55;nan;100527.69;5146661;27;20034;-67
2022/12/06 14:01:44;;;;;;;17.13;6.90;;;;;;;7.57;nan;100536.97;5150713;27;20033;-67
2022/12/06 14:04:25;;;;;;;13.70;6.22;;;;;;;7.54;nan;100547.84;5143720;27;20539;-68
2022/12/06 14:07:01;;;;;;;14.93;6.70;;;;;;;7.47;nan;100536.56;5134677;27;20425;-68
2022/12/06 14:09:40;;;;;;;19.40;7.95;;;;;;;7.45;nan;100560.34;5128880;27;20059;-68
2022/12/06 14:12:26;;;;;;;;;;;;;;;7.48;nan;100564.38;5124838;27;20027;-67
2022/12/06 14:15:03;;;;;;;21.83;8.70;;;;;;;7.45;nan;100549.84;5151131;27;19915;-67